Time;durP1;ratioP1;P1;durP2;ratioP2;P2;SDS_P1;SDS_P2;PMS_P1;PMS_P2;Temp;Humidity;BMP_temperature;BMP_pressure;BME280_temperature;BME280_humidity;BME280_pressure;Samples;Min_cycle;Max_cycle;Signal;HPM_P1;HPM_P2
2022/05/04 00:02:55;;;;;;;28.88;19.40;;;;;;;17.80;61.57;96552.47;10327567;28;20077;-23
2022/05/04 00:07:55;;;;;;;24.70;16.80;;;;;;;17.72;57.13;96556.69;10327851;28;20042;-23
2022/05/04 00:12:59;;;;;;;26.03;17.27;;;;;;;17.65;55.85;96550.78;10350272;28;20042;-23
2022/05/04 00:18:00;;;;;;;21.17;16.13;;;;;;;17.67;55.92;96558.38;10368132;28;20029;-23
2022/05/04 00:23:00;;;;;;;23.07;16.13;;;;;;;17.67;55.91;96558.38;10328773;28;20113;-23
2022/05/04 00:28:02;;;;;;;22.97;17.10;;;;;;;17.66;55.60;96560.06;10351383;28;20371;-25
2022/05/04 00:33:03;;;;;;;20.80;15.57;;;;;;;17.66;55.79;96556.69;10397198;28;20044;-25
2022/05/04 00:38:03;;;;;;;21.42;15.32;;;;;;;17.65;55.76;96555.00;10380591;28;20539;-24
2022/05/04 00:43:04;;;;;;;21.27;15.10;;;;;;;17.63;55.69;96551.63;10342293;28;20549;-25
2022/05/04 00:48:04;;;;;;;26.10;16.17;;;;;;;17.67;56.01;96550.78;10327193;28;20042;-23
2022/05/04 00:53:05;;;;;;;21.58;15.32;;;;;;;17.67;55.74;96553.31;10361549;28;20313;-23
2022/05/04 01:03:26;;;;;;;28.35;18.70;;;;;;;17.79;62.63;96551.63;10326754;28;20397;-22
2022/05/04 01:08:26;;;;;;;25.30;18.45;;;;;;;17.79;60.66;96548.25;10326454;28;20045;-23
2022/05/04 01:13:27;;;;;;;23.50;15.83;;;;;;;17.73;56.70;96543.19;10326953;28;20077;-24
2022/05/04 01:18:27;;;;;;;20.65;14.73;;;;;;;17.69;55.95;96549.94;10334072;28;20281;-23
2022/05/04 01:23:28;;;;;;;20.80;15.73;;;;;;;17.71;56.18;96549.94;10333542;28;20520;-23
2022/05/04 01:28:28;;;;;;;19.83;14.07;;;;;;;17.70;55.64;96553.31;10333167;28;20050;-23
2022/05/04 01:33:32;;;;;;;22.50;14.88;;;;;;;17.67;55.75;96541.47;10398902;28;20283;-24
2022/05/04 01:38:33;;;;;;;22.33;15.43;;;;;;;17.69;55.82;96554.16;10353880;28;20030;-24
2022/05/04 01:43:34;;;;;;;20.48;14.40;;;;;;;17.68;55.67;96563.44;10332721;28;20505;-23
2022/05/04 01:48:34;;;;;;;21.67;14.83;;;;;;;17.69;55.79;96566.81;10333009;28;20053;-23
2022/05/04 01:53:34;;;;;;;21.50;15.30;;;;;;;17.69;55.92;96561.75;10337786;28;20424;-23
2022/05/04 01:58:35;;;;;;;18.60;14.37;;;;;;;17.67;55.89;96559.22;10333124;28;20335;-23
2022/05/04 02:03:37;;;;;;;24.27;17.83;;;;;;;17.70;61.77;96554.16;10332250;28;20783;-23
2022/05/04 02:08:38;;;;;;;26.58;17.25;;;;;;;17.79;62.40;96568.50;10363259;28;20042;-23
2022/05/04 02:13:38;;;;;;;24.50;17.52;;;;;;;17.79;60.71;96563.44;10342137;28;20050;-24
2022/05/04 02:18:39;;;;;;;19.93;15.17;;;;;;;17.72;56.47;96564.28;10331742;28;20113;-23
2022/05/04 02:23:39;;;;;;;18.58;14.15;;;;;;;17.71;56.23;96560.91;10368698;28;20783;-24
2022/05/04 02:28:40;;;;;;;20.83;14.33;;;;;;;17.69;56.30;96566.81;10339950;28;20552;-23
2022/05/04 02:33:42;;;;;;;18.00;13.63;;;;;;;17.69;55.62;96571.88;10381625;28;20056;-24
2022/05/04 02:38:42;;;;;;;17.30;12.65;;;;;;;17.69;56.01;96572.75;10331811;28;20301;-23
2022/05/04 02:43:43;;;;;;;19.57;13.47;;;;;;;17.66;56.07;96565.13;10359617;28;20580;-24
2022/05/04 02:48:43;;;;;;;21.70;14.30;;;;;;;17.68;56.02;96565.97;10364698;28;20433;-23
2022/05/04 02:53:44;;;;;;;18.63;13.55;;;;;;;17.66;56.00;96565.13;10329745;28;20098;-22
2022/05/04 02:58:45;;;;;;;17.93;13.93;;;;;;;17.67;55.95;96566.81;10329857;28;20061;-23
2022/05/04 03:03:45;;;;;;;21.70;14.38;;;;;;;17.67;56.35;96569.34;10329760;28;20038;-23
2022/05/04 03:08:46;;;;;;;21.57;16.17;;;;;;;17.72;61.90;96571.88;10329929;28;20437;-23
2022/05/04 03:13:47;;;;;;;24.13;16.33;;;;;;;17.75;61.97;96561.75;10329319;28;20505;-23
2022/05/04 03:18:47;;;;;;;20.27;14.48;;;;;;;17.76;60.47;96568.50;10329158;28;20023;-23
2022/05/04 03:23:47;;;;;;;19.23;13.60;;;;;;;17.72;56.73;96570.19;10329447;28;20039;-23
2022/05/04 03:28:48;;;;;;;17.23;13.53;;;;;;;17.71;56.41;96560.06;10328563;28;20043;-24
2022/05/04 03:33:49;;;;;;;16.45;12.48;;;;;;;17.71;56.04;96565.13;10389597;28;20289;-23
2022/05/04 03:38:49;;;;;;;17.58;13.27;;;;;;;17.67;56.20;96564.28;10328398;28;20034;-24
2022/05/04 03:43:49;;;;;;;18.70;13.07;;;;;;;17.68;56.12;96567.66;10349493;28;20042;-23
2022/05/04 03:48:53;;;;;;;18.97;13.73;;;;;;;17.70;56.44;96568.50;10368735;28;20041;-22
2022/05/04 03:53:54;;;;;;;20.50;13.95;;;;;;;17.66;55.62;96561.75;10353920;28;20077;-22
2022/05/04 03:58:54;;;;;;;17.70;12.52;;;;;;;17.70;55.80;96568.50;10353972;28;20072;-24
2022/05/04 04:03:55;;;;;;;18.88;13.98;;;;;;;17.70;55.81;96568.50;10364836;28;20041;-22
2022/05/04 04:08:55;;;;;;;21.50;13.83;;;;;;;17.73;56.04;96573.59;10327532;28;20169;-22
2022/05/04 04:13:56;;;;;;;18.25;13.52;;;;;;;17.75;58.17;96571.88;10327568;28;20297;-23
2022/05/04 04:18:56;;;;;;;18.60;13.38;;;;;;;17.81;60.28;96575.25;10327806;28;20038;-25
2022/05/04 04:23:57;;;;;;;21.13;14.70;;;;;;;17.80;59.10;96580.31;10327139;28;20045;-23
2022/05/04 04:28:58;;;;;;;17.67;11.87;;;;;;;17.79;56.80;96578.63;10358371;28;20038;-24
2022/05/04 04:34:01;;;;;;;13.88;9.88;;;;;;;17.64;56.89;96581.16;10387665;28;20719;-23
2022/05/04 04:39:02;;;;;;;13.10;7.70;;;;;;;17.54;56.08;96587.03;10327125;28;20440;-22
2022/05/04 04:44:02;;;;;;;11.27;7.82;;;;;;;17.53;55.74;96585.34;10357925;28;20062;-23
2022/05/04 04:49:03;;;;;;;12.98;9.27;;;;;;;17.57;54.99;96589.59;10368128;28;20065;-23
2022/05/04 04:54:03;;;;;;;15.40;10.17;;;;;;;17.67;55.72;96598.88;10374956;28;20084;-24
2022/05/04 04:59:04;;;;;;;10.83;7.43;;;;;;;17.63;55.37;96592.13;10342260;28;20633;-23
2022/05/04 05:04:04;;;;;;;12.73;9.90;;;;;;;17.69;55.59;96587.06;10334728;28;20289;-23
2022/05/04 05:09:04;;;;;;;12.63;9.10;;;;;;;17.67;55.00;96592.13;10333534;28;20320;-23
2022/05/04 05:19:24;;;;;;;14.75;8.90;;;;;;;17.77;58.36;96595.50;10340552;28;20289;-23
2022/05/04 05:24:24;;;;;;;13.35;9.15;;;;;;;17.81;58.55;96598.06;10374237;28;20053;-24
2022/05/04 05:29:25;;;;;;;19.27;9.57;;;;;;;17.82;56.43;96602.28;10339153;28;20031;-23
2022/05/04 05:34:26;;;;;;;12.57;9.30;;;;;;;17.80;55.61;96598.03;10395792;28;20096;-24
2022/05/04 05:39:27;;;;;;;13.57;9.82;;;;;;;17.80;55.34;96600.56;10333739;28;20041;-24
2022/05/04 05:44:27;;;;;;;15.80;10.67;;;;;;;17.75;55.39;96602.28;10368153;28;20034;-22
2022/05/04 05:49:28;;;;;;;12.53;8.80;;;;;;;17.76;55.58;96607.31;10363331;28;20694;-22
2022/05/04 05:54:31;;;;;;;13.23;9.60;;;;;;;17.74;55.51;96608.19;10373392;28;20504;-24
2022/05/04 05:59:31;;;;;;;15.40;9.20;;;;;;;17.69;55.95;96608.19;10335634;28;20038;-23
2022/05/04 06:04:32;;;;;;;13.77;9.40;;;;;;;17.67;55.44;96599.72;10344717;28;20440;-20
2022/05/04 06:09:32;;;;;;;16.63;9.77;;;;;;;17.69;55.81;96605.66;10371157;28;20029;-22
2022/05/04 06:14:33;;;;;;;17.00;9.63;;;;;;;17.74;56.82;96615.78;10335847;28;20121;-23
2022/05/04 06:19:33;;;;;;;20.23;10.07;;;;;;;17.73;55.93;96619.16;10332009;28;20760;-23
2022/05/04 06:24:33;;;;;;;17.13;8.50;;;;;;;17.76;59.59;96624.22;10330987;28;20045;-23
2022/05/04 06:34:53;;;;;;;12.32;9.43;;;;;;;17.80;58.69;96620.81;10382259;28;20711;-24
2022/05/04 06:39:53;;;;;;;13.05;9.75;;;;;;;17.76;56.82;96624.22;10331580;28;20081;-23
2022/05/04 06:44:54;;;;;;;13.67;8.90;;;;;;;17.74;56.60;96625.91;10369702;28;20033;-23
2022/05/04 06:49:54;;;;;;;12.43;9.03;;;;;;;17.63;56.71;96609.84;10365849;28;20096;-23
2022/05/04 06:54:54;;;;;;;13.53;8.50;;;;;;;17.72;56.92;96627.56;10370430;28;20061;-23
2022/05/04 06:59:55;;;;;;;16.90;9.37;;;;;;;17.71;57.06;96638.53;10329883;28;20041;-23
2022/05/04 07:04:56;;;;;;;10.30;8.77;;;;;;;17.70;56.34;96631.78;10329695;28;20132;-24
2022/05/04 07:09:57;;;;;;;12.03;9.07;;;;;;;17.69;56.42;96633.50;10330174;28;20050;-22
2022/05/04 07:14:58;;;;;;;12.02;8.90;;;;;;;17.70;55.99;96629.25;10328998;28;20676;-23
2022/05/04 07:19:58;;;;;;;11.63;8.70;;;;;;;17.70;58.27;96629.25;10329280;28;20042;-23
2022/05/04 07:24:58;;;;;;;12.90;9.10;;;;;;;17.71;58.49;96620.81;10328675;28;20042;-25
2022/05/04 07:29:59;;;;;;;11.83;8.47;;;;;;;17.76;59.70;96627.56;10338263;28;20047;-23
2022/05/04 07:35:00;;;;;;;11.83;8.90;;;;;;;17.81;59.40;96619.97;10401338;28;20479;-23
2022/05/04 07:45:19;;;;;;;11.88;8.82;;;;;;;17.80;55.90;96620.81;10328393;28;20042;-24
2022/05/04 07:50:20;;;;;;;11.98;8.23;;;;;;;17.76;55.65;96621.69;10341248;28;20046;-23
2022/05/04 07:55:20;;;;;;;11.00;7.30;;;;;;;17.78;55.46;96617.47;10365664;28;20042;-23
2022/05/04 08:05:40;;;;;;;11.55;8.10;;;;;;;17.75;55.62;96620.81;10346648;28;20327;-22
2022/05/04 08:10:41;;;;;;;10.50;8.15;;;;;;;17.65;55.77;96600.56;10362830;28;20403;-23
2022/05/04 08:15:41;;;;;;;11.18;8.30;;;;;;;17.75;55.47;96617.47;10327756;28;20073;-24
2022/05/04 08:20:42;;;;;;;10.77;7.83;;;;;;;17.74;55.31;96621.66;10327376;28;20042;-24
2022/05/04 08:25:43;;;;;;;11.45;9.07;;;;;;;17.75;55.37;96620.00;10327297;28;20026;-23
2022/05/04 08:30:44;;;;;;;13.55;8.43;;;;;;;17.77;58.40;96623.38;10348584;28;20033;-23
2022/05/04 08:35:45;;;;;;;11.67;8.50;;;;;;;17.74;59.49;96605.66;10394722;28;20034;-24
2022/05/04 08:40:46;;;;;;;12.52;9.02;;;;;;;17.80;59.47;96620.81;10327609;28;20130;-23
2022/05/04 08:45:50;;;;;;;11.05;8.43;;;;;;;17.80;58.25;96620.81;10326725;28;20250;-24
2022/05/04 08:50:51;;;;;;;11.85;9.13;;;;;;;17.76;57.08;96626.75;10335343;28;20022;-23
2022/05/04 08:55:51;;;;;;;10.18;7.72;;;;;;;17.74;55.82;96609.00;10327258;28;20030;-23
2022/05/04 09:00:51;;;;;;;10.83;8.03;;;;;;;17.74;56.05;96605.66;10326982;28;20034;-23
2022/05/04 09:05:53;;;;;;;10.47;7.53;;;;;;;17.74;55.35;96603.13;10341607;28;20042;-23
2022/05/04 09:10:54;;;;;;;10.95;8.50;;;;;;;17.70;55.65;96598.88;10359816;28;20305;-22
2022/05/04 09:15:55;;;;;;;10.18;8.00;;;;;;;17.72;55.70;96599.72;10326852;28;20042;-23
2022/05/04 09:20:55;;;;;;;12.98;8.90;;;;;;;17.71;55.39;96605.63;10326603;28;20037;-24
2022/05/04 09:26:05;;;;;;;11.10;8.18;;;;;;;17.69;55.51;96597.19;10332952;28;20042;-23
2022/05/04 09:31:08;;;;;;;8.95;7.90;;;;;;;17.70;55.77;96599.75;10380325;28;20519;-24
2022/05/04 09:36:11;;;;;;;11.35;7.95;;;;;;;17.75;59.27;96603.09;10389347;28;20525;-23
2022/05/04 09:47:00;;;;;;;9.57;7.47;;;;;;;17.80;59.24;96585.38;10332833;28;20476;-25
2022/05/04 09:52:04;;;;;;;11.40;7.38;;;;;;;17.74;57.26;96585.41;10334798;28;20125;-23
2022/05/04 09:57:04;;;;;;;9.30;7.45;;;;;;;17.73;57.36;96581.19;10333054;28;20030;-23
2022/05/04 10:02:09;;;;;;;9.52;7.47;;;;;;;17.71;56.29;96580.31;10332660;28;20030;-25
2022/05/04 10:07:10;;;;;;;9.23;7.93;;;;;;;17.70;56.82;96581.16;10331945;28;20121;-24
2022/05/04 10:12:11;;;;;;;10.40;7.07;;;;;;;17.70;56.59;96592.16;10331533;28;20457;-23
2022/05/04 10:17:20;;;;;;;10.35;8.00;;;;;;;17.67;55.97;96581.16;10331804;28;20118;-23
2022/05/04 10:22:27;;;;;;;9.35;7.60;;;;;;;17.71;55.71;96581.16;10331740;28;20034;-22
2022/05/04 10:27:28;;;;;;;12.80;7.07;;;;;;;17.63;57.27;96571.88;10331896;28;20474;-24
2022/05/04 10:32:34;;;;;;;10.07;7.13;;;;;;;17.70;55.68;96573.56;10350689;28;20117;-22
2022/05/04 10:37:34;;;;;;;10.15;7.85;;;;;;;17.69;55.66;96567.66;10330912;28;20088;-23
2022/05/04 10:42:58;;;;;;;10.97;7.63;;;;;;;17.82;59.78;96571.06;10350575;28;20072;-23
2022/05/04 10:48:23;;;;;;;8.93;6.88;;;;;;;17.87;59.88;96566.81;10370304;28;20077;-23
2022/05/04 10:53:23;;;;;;;8.82;7.65;;;;;;;17.80;58.30;96562.59;10339072;28;20124;-23
2022/05/04 10:58:31;;;;;;;16.77;7.45;;;;;;;17.77;55.81;96566.00;10330273;28;20133;-23
2022/05/04 11:03:34;;;;;;;9.38;7.15;;;;;;;17.73;55.74;96559.22;10330135;28;20465;-25
2022/05/04 11:08:36;;;;;;;10.50;7.45;;;;;;;17.77;56.94;96549.94;10329403;28;20104;-23
2022/05/04 11:13:36;;;;;;;7.00;6.25;;;;;;;17.74;55.61;96549.94;10329111;28;20093;-25
2022/05/04 11:18:38;;;;;;;8.80;6.35;;;;;;;17.74;55.32;96549.94;10329508;28;20567;-23
2022/05/04 11:23:39;;;;;;;10.20;7.05;;;;;;;17.63;55.97;96526.28;10329508;28;20042;-23
2022/05/04 11:28:39;;;;;;;8.73;6.40;;;;;;;17.71;55.60;96555.00;10339316;28;20045;-23
2022/05/04 11:33:42;;;;;;;9.47;6.63;;;;;;;17.73;55.67;96551.63;10403910;28;20037;-25
2022/05/04 11:38:46;;;;;;;9.88;7.28;;;;;;;17.76;55.74;96550.78;10360555;28;20400;-23
2022/05/04 11:43:49;;;;;;;21.13;8.48;;;;;;;17.76;57.54;96533.88;10357864;28;20466;-23
2022/05/04 11:48:50;;;;;;;12.73;7.32;;;;;;;17.92;61.97;96545.69;10369297;28;20408;-23
2022/05/04 11:53:50;;;;;;;13.97;6.70;;;;;;;17.99;60.07;96533.91;10367587;28;20041;-23
2022/05/04 11:58:52;;;;;;;13.23;6.40;;;;;;;17.88;57.12;96522.91;10337404;28;20293;-24
2022/05/04 12:03:53;;;;;;;11.50;6.93;;;;;;;17.80;56.05;96522.06;10331455;28;20791;-23
2022/05/04 12:08:54;;;;;;;9.30;7.05;;;;;;;17.79;55.90;96525.44;10368679;28;20065;-24
2022/05/04 12:13:56;;;;;;;9.88;6.68;;;;;;;17.75;55.54;96527.13;10336261;28;20514;-23
2022/05/04 12:18:58;;;;;;;10.18;6.70;;;;;;;17.71;55.58;96514.47;10327398;28;20038;-23
2022/05/04 12:24:00;;;;;;;9.43;6.95;;;;;;;17.73;55.46;96508.56;10363134;28;20040;-24
2022/05/04 12:34:20;;;;;;;10.70;6.35;;;;;;;17.73;55.78;96520.41;10390184;28;20030;-24
2022/05/04 12:39:22;;;;;;;15.60;6.75;;;;;;;17.73;55.55;96513.63;10364602;28;20128;-22
2022/05/04 12:44:22;;;;;;;9.02;6.43;;;;;;;17.71;55.41;96519.53;10329350;28;20040;-24
2022/05/04 12:49:23;;;;;;;21.70;9.18;;;;;;;17.78;60.63;96526.31;10331712;28;20045;-23
2022/05/04 12:54:24;;;;;;;20.77;7.50;;;;;;;17.98;61.84;96529.69;10329053;28;20121;-23
2022/05/04 12:59:24;;;;;;;14.05;7.57;;;;;;;17.93;59.05;96508.56;10326642;28;20515;-24
2022/05/04 13:04:25;;;;;;;36.30;8.37;;;;;;;17.87;57.88;96517.03;10326076;28;20485;-25
2022/05/04 13:09:25;;;;;;;39.60;8.93;;;;;;;17.81;57.13;96500.97;10326440;28;20497;-24
2022/05/04 13:14:25;;;;;;;34.27;8.40;;;;;;;17.79;56.38;96502.66;10333890;28;20290;-23
2022/05/04 13:19:26;;;;;;;16.90;6.60;;;;;;;17.76;56.05;96505.22;10334454;28;20562;-23
2022/05/04 13:24:26;;;;;;;13.83;6.00;;;;;;;17.75;56.14;96503.53;10333685;28;20045;-24
2022/05/04 13:29:27;;;;;;;14.70;7.17;;;;;;;17.74;56.42;96499.31;10333791;28;20050;-24
2022/05/04 13:34:27;;;;;;;16.60;6.23;;;;;;;17.65;55.92;96492.56;10341831;28;20660;-20
2022/05/04 13:39:27;;;;;;;14.60;6.40;;;;;;;17.67;56.00;96502.69;10365650;28;20404;-23
2022/05/04 13:44:28;;;;;;;7.82;6.57;;;;;;;17.70;56.07;96517.88;10332978;28;20583;-23
2022/05/04 13:49:28;;;;;;;10.60;6.50;;;;;;;17.71;55.97;96527.13;10354082;28;20041;-22
2022/05/04 13:54:29;;;;;;;28.38;7.32;;;;;;;17.86;61.73;96528.00;10373888;28;20120;-23
2022/05/04 13:59:29;;;;;;;20.67;6.73;;;;;;;18.00;61.20;96528.81;10371930;28;20373;-23
2022/05/04 14:04:29;;;;;;;14.47;6.50;;;;;;;18.03;58.49;96528.81;10365961;28;20460;-24
2022/05/04 14:09:31;;;;;;;13.57;6.37;;;;;;;17.83;56.79;96522.09;10332468;28;20036;-23
2022/05/04 14:19:50;;;;;;;11.50;7.78;;;;;;;17.74;55.82;96539.81;10370713;28;20104;-23
2022/05/04 14:24:50;;;;;;;12.87;7.40;;;;;;;17.73;56.01;96541.50;10331305;28;20057;-25
2022/05/04 14:29:51;;;;;;;11.37;7.23;;;;;;;17.71;55.94;96553.31;10337242;28;20350;-23
2022/05/04 14:34:51;;;;;;;12.33;6.57;;;;;;;17.73;57.19;96545.72;10412789;28;20288;-22
2022/05/04 14:39:52;;;;;;;17.13;6.60;;;;;;;17.72;56.28;96551.63;10365171;28;20125;-24
2022/05/04 14:44:52;;;;;;;9.45;6.53;;;;;;;17.70;56.37;96554.16;10330000;28;20301;-23
2022/05/04 14:49:52;;;;;;;14.30;5.97;;;;;;;17.69;56.41;96557.53;10339452;28;20044;-24
2022/05/04 14:54:53;;;;;;;17.37;5.60;;;;;;;17.76;56.29;96560.91;10371156;28;20037;-24
2022/05/04 14:59:53;;;;;;;15.70;5.50;;;;;;;17.89;56.10;96558.38;10369806;28;20061;-24
2022/05/04 15:05:03;;;;;;;9.27;3.70;;;;;;;18.08;56.65;96559.22;10359803;28;20115;-24
2022/05/04 15:10:04;;;;;;;9.98;5.15;;;;;;;18.05;56.22;96571.88;10328649;28;20297;-24
2022/05/04 15:15:05;;;;;;;14.15;5.82;;;;;;;17.90;55.89;96572.72;10327503;28;20042;-23
2022/05/04 15:20:06;;;;;;;10.70;4.47;;;;;;;17.86;56.70;96586.25;10328980;28;20473;-23
2022/05/04 15:25:07;;;;;;;9.98;5.47;;;;;;;17.79;55.92;96591.28;10327743;28;20038;-22
2022/05/04 15:30:08;;;;;;;11.05;5.18;;;;;;;17.74;56.07;96593.81;10340081;28;20041;-23
2022/05/04 15:35:09;;;;;;;5.78;4.70;;;;;;;17.73;55.76;96601.44;10405920;28;20034;-23
2022/05/04 15:40:10;;;;;;;7.67;4.67;;;;;;;17.73;56.02;96591.31;10368006;28;20500;-22
2022/05/04 15:45:10;;;;;;;5.90;4.55;;;;;;;17.70;55.96;96591.28;10328727;28;20034;-23
2022/05/04 15:50:11;;;;;;;8.35;6.05;;;;;;;17.70;56.06;96591.28;10337898;28;20657;-24
2022/05/04 15:55:13;;;;;;;7.13;5.05;;;;;;;17.66;56.14;96587.06;10328931;28;20548;-23
2022/05/04 16:00:14;;;;;;;5.43;3.38;;;;;;;17.70;55.99;96591.28;10365542;28;20041;-24
2022/05/04 16:05:15;;;;;;;6.60;3.28;;;;;;;17.81;54.10;96589.59;10327083;28;20401;-23
2022/05/04 16:10:15;;;;;;;12.07;2.50;;;;;;;17.90;52.56;96587.91;10327660;28;20034;-24
2022/05/04 16:15:17;;;;;;;11.57;2.70;;;;;;;17.83;51.92;96575.28;10326812;28;20428;-22
2022/05/04 16:25:38;;;;;;;9.80;3.88;;;;;;;17.72;55.06;96571.88;10326906;28;20559;-24
2022/05/04 16:30:38;;;;;;;9.73;4.85;;;;;;;17.69;55.47;96577.81;10346464;28;20037;-24
2022/05/04 16:35:38;;;;;;;9.47;5.40;;;;;;;17.68;55.75;96571.03;10377144;28;20046;-23
2022/05/04 16:40:39;;;;;;;7.03;4.60;;;;;;;17.67;55.59;96576.09;10330877;28;20030;-23
2022/05/04 16:45:39;;;;;;;12.83;4.13;;;;;;;17.65;55.68;96585.38;10369182;28;20034;-24
2022/05/04 16:50:43;;;;;;;13.00;4.22;;;;;;;17.71;56.13;96585.38;10361827;28;20104;-23
2022/05/04 16:55:43;;;;;;;7.47;4.57;;;;;;;17.62;55.94;96575.25;10358054;28;20059;-25
2022/05/04 17:00:44;;;;;;;7.47;4.70;;;;;;;17.65;55.90;96585.38;10350475;28;20030;-24
2022/05/04 17:05:44;;;;;;;7.00;3.80;;;;;;;17.64;55.93;96589.59;10369419;28;20306;-23
2022/05/04 17:10:45;;;;;;;9.80;3.33;;;;;;;17.85;58.86;96598.91;10363047;28;20041;-23
2022/05/04 17:15:46;;;;;;;9.13;2.97;;;;;;;17.92;59.09;96582.88;10334240;28;20273;-23
2022/05/04 17:20:47;;;;;;;15.15;4.15;;;;;;;17.88;57.24;96574.41;10334502;28;20052;-24
2022/05/04 17:25:48;;;;;;;9.35;4.00;;;;;;;17.78;56.89;96579.47;10339419;28;20038;-22
2022/05/04 17:30:48;;;;;;;19.70;4.10;;;;;;;17.73;55.78;96574.41;10384759;28;20399;-22
2022/05/04 17:41:08;;;;;;;10.00;4.30;;;;;;;17.68;55.81;96577.78;10333232;28;20369;-24
2022/05/04 17:46:10;;;;;;;5.78;4.38;;;;;;;17.70;55.90;96576.09;10333035;28;20129;-23
2022/05/04 17:51:10;;;;;;;8.30;4.35;;;;;;;17.66;55.65;96576.94;10352540;28;20038;-24
2022/05/04 17:56:11;;;;;;;8.77;3.73;;;;;;;17.66;55.99;96579.47;10362547;28;20031;-24
2022/05/04 18:01:11;;;;;;;5.47;4.00;;;;;;;17.64;56.48;96591.28;10356934;28;20057;-24
2022/05/04 18:06:18;;;;;;;6.80;4.20;;;;;;;17.58;56.28;96583.69;10360983;28;20029;-24
2022/05/04 18:11:18;;;;;;;15.05;4.25;;;;;;;17.75;59.09;96603.09;10363641;28;20376;-23
2022/05/04 18:16:18;;;;;;;12.10;4.67;;;;;;;17.91;60.83;96614.09;10361873;28;20046;-24
2022/05/04 18:21:19;;;;;;;7.53;3.90;;;;;;;17.87;57.22;96607.34;10357875;28;20053;-23
2022/05/04 18:26:20;;;;;;;7.53;3.95;;;;;;;17.79;56.29;96609.88;10365134;28;20145;-24
2022/05/04 18:31:21;;;;;;;8.83;3.83;;;;;;;17.74;56.40;96610.72;10372472;28;20045;-23
2022/05/04 18:36:31;;;;;;;6.45;4.07;;;;;;;17.70;56.12;96614.06;10354516;28;20030;-24
2022/05/04 18:41:32;;;;;;;7.10;3.35;;;;;;;17.67;55.75;96614.06;10356513;28;20131;-25
2022/05/04 18:46:32;;;;;;;6.00;3.33;;;;;;;17.64;56.50;96635.16;10365547;28;20038;-23
2022/05/04 18:51:32;;;;;;;5.33;3.93;;;;;;;17.61;56.00;96634.31;10365993;28;20041;-24
2022/05/04 18:56:35;;;;;;;7.27;3.53;;;;;;;17.61;56.12;96635.16;10354267;28;20375;-23
2022/05/04 19:01:36;;;;;;;9.23;3.67;;;;;;;17.64;56.11;96641.91;10366468;28;20052;-23
2022/05/04 19:06:37;;;;;;;6.68;3.92;;;;;;;17.56;55.97;96631.78;10361658;28;20103;-24
2022/05/04 19:11:37;;;;;;;7.03;2.90;;;;;;;17.85;61.11;96652.06;10359174;28;20034;-24
2022/05/04 19:16:37;;;;;;;9.15;3.65;;;;;;;17.89;61.45;96646.16;10357224;28;20107;-24
2022/05/04 19:21:38;;;;;;;5.70;3.92;;;;;;;17.88;58.33;96654.59;10351109;28;20499;-24
2022/05/04 19:26:39;;;;;;;7.43;3.92;;;;;;;17.74;57.32;96668.94;10359568;28;20041;-23
2022/05/04 19:31:39;;;;;;;4.18;3.53;;;;;;;17.75;58.90;96678.22;10370186;28;20512;-24
2022/05/04 19:36:39;;;;;;;9.68;3.47;;;;;;;17.72;56.44;96678.22;10355466;28;20492;-23
2022/05/04 19:41:41;;;;;;;5.57;3.10;;;;;;;17.67;56.22;96687.50;10354983;28;20062;-23
2022/05/04 19:46:43;;;;;;;5.28;4.13;;;;;;;17.64;56.26;96693.41;10356812;28;20397;-23
2022/05/04 19:51:43;;;;;;;4.65;3.65;;;;;;;17.65;56.06;96701.84;10349770;28;20030;-23
2022/05/04 19:56:44;;;;;;;5.53;3.60;;;;;;;17.65;55.91;96711.97;10361803;28;20056;-22
2022/05/04 20:01:45;;;;;;;5.10;4.28;;;;;;;17.64;56.11;96710.25;10364444;28;20047;-23
2022/05/04 20:06:45;;;;;;;3.80;3.30;;;;;;;17.64;55.83;96715.31;10353964;28;20045;-23
2022/05/04 20:11:45;;;;;;;4.80;3.17;;;;;;;17.70;59.64;96730.53;10350741;28;20391;-23
2022/05/04 20:16:46;;;;;;;5.30;3.08;;;;;;;17.86;61.65;96737.34;10358542;28;20350;-23
2022/05/04 20:21:47;;;;;;;4.70;3.07;;;;;;;17.91;61.66;96740.75;10354652;28;20041;-24
2022/05/04 20:26:47;;;;;;;3.70;2.80;;;;;;;17.86;57.68;96747.47;10349078;28;20038;-24
2022/05/04 20:31:47;;;;;;;6.83;3.53;;;;;;;17.75;56.70;96744.91;10359225;28;20041;-23
2022/05/04 20:36:48;;;;;;;7.13;3.13;;;;;;;17.72;56.23;96754.16;10365201;28;20195;-22
2022/05/04 20:41:49;;;;;;;6.32;3.65;;;;;;;17.70;56.36;96761.78;10358084;28;20029;-24
2022/05/04 20:46:49;;;;;;;5.53;4.03;;;;;;;17.67;56.08;96759.22;10362948;28;20038;-26
2022/05/04 20:57:09;;;;;;;3.95;3.47;;;;;;;17.69;55.65;96766.81;10358878;28;20114;-23
2022/05/04 21:02:09;;;;;;;4.70;3.42;;;;;;;17.67;55.74;96755.84;10359902;28;20095;-24
2022/05/04 21:07:10;;;;;;;7.13;3.55;;;;;;;17.66;55.82;96769.38;10362450;28;20037;-22
2022/05/04 21:12:10;;;;;;;6.03;3.87;;;;;;;17.64;55.83;96771.00;10364647;28;20063;-23
2022/05/04 21:17:11;;;;;;;7.50;4.30;;;;;;;17.63;55.62;96760.06;10364676;28;20139;-23
2022/05/04 21:22:11;;;;;;;9.97;3.23;;;;;;;17.85;63.10;96764.38;10328386;28;20121;-23
2022/05/04 21:27:12;;;;;;;7.70;3.03;;;;;;;17.91;62.99;96766.91;10326049;28;20045;-23
2022/05/04 21:32:12;;;;;;;4.73;3.23;;;;;;;17.89;58.72;96777.84;10373041;28;20037;-22
2022/05/04 21:37:13;;;;;;;5.35;3.67;;;;;;;17.77;56.84;96772.78;10392910;28;20492;-23
2022/05/04 21:42:14;;;;;;;3.60;3.10;;;;;;;17.73;55.93;96783.75;10355925;28;20493;-22
2022/05/04 21:47:15;;;;;;;5.70;3.27;;;;;;;17.71;56.36;96790.47;10333393;28;20108;-24
2022/05/04 21:52:15;;;;;;;6.13;3.15;;;;;;;17.67;56.21;96791.31;10341910;28;20123;-23
2022/05/04 21:57:16;;;;;;;4.45;3.42;;;;;;;17.66;56.13;96785.38;10332562;28;20130;-23
2022/05/04 22:02:16;;;;;;;7.27;4.00;;;;;;;17.63;55.99;96795.50;10332244;28;20555;-24
2022/05/04 22:07:17;;;;;;;4.45;3.42;;;;;;;17.64;55.88;96793.81;10332009;28;20377;-24
2022/05/04 22:17:36;;;;;;;4.50;3.15;;;;;;;17.64;55.98;96803.94;10332756;28;20045;-23
2022/05/04 22:22:39;;;;;;;4.97;3.30;;;;;;;17.64;56.04;96801.41;10331672;28;20049;-23
2022/05/04 22:27:39;;;;;;;6.32;2.65;;;;;;;17.83;61.94;96796.41;10332227;28;20119;-25
2022/05/04 22:32:40;;;;;;;4.47;3.07;;;;;;;17.86;62.25;96803.19;10384604;28;20041;-23
2022/05/04 22:37:40;;;;;;;6.50;3.75;;;;;;;17.87;59.25;96815.00;10356307;28;20045;-25
2022/05/04 22:42:41;;;;;;;3.00;2.70;;;;;;;17.76;56.67;96811.59;10351700;28;20026;-24
2022/05/04 22:47:41;;;;;;;4.93;3.23;;;;;;;17.72;56.63;96817.47;10371570;28;20034;-24
2022/05/04 22:52:43;;;;;;;3.27;2.80;;;;;;;17.71;56.09;96803.97;10363036;28;20121;-24
2022/05/04 22:57:44;;;;;;;4.35;3.10;;;;;;;17.73;56.18;96821.72;10369694;28;20034;-24
2022/05/04 23:02:44;;;;;;;3.43;3.03;;;;;;;17.74;55.98;96818.34;10370347;28;20504;-24
2022/05/04 23:07:45;;;;;;;3.55;3.00;;;;;;;17.72;55.87;96814.94;10338885;28;20301;-23
2022/05/04 23:12:45;;;;;;;4.93;3.23;;;;;;;17.75;55.89;96814.97;10329146;28;20113;-24
2022/05/04 23:17:46;;;;;;;3.23;2.80;;;;;;;17.73;55.72;96814.94;10330051;28;20034;-25
2022/05/04 23:22:46;;;;;;;4.25;2.92;;;;;;;17.73;55.77;96819.19;10349048;28;20083;-23
2022/05/04 23:27:46;;;;;;;3.50;2.80;;;;;;;17.73;55.84;96811.59;10346271;28;20031;-23
2022/05/04 23:32:47;;;;;;;4.37;2.20;;;;;;;17.84;62.99;96813.31;10328992;28;20031;-23
2022/05/04 23:37:48;;;;;;;4.37;3.20;;;;;;;17.86;63.03;96808.25;10329014;28;20038;-23
2022/05/04 23:42:48;;;;;;;4.22;3.03;;;;;;;17.85;59.07;96806.56;10328563;28;20125;-22
2022/05/04 23:47:48;;;;;;;3.10;2.43;;;;;;;17.79;56.63;96815.00;10328240;28;20417;-23
2022/05/04 23:52:49;;;;;;;4.43;2.73;;;;;;;17.74;56.26;96800.63;10359446;28;20030;-22
